Terminal Aerodrome Forecast
Issued by NWS Pocatello, ID

Home | Current Version | Previous Version | Text Only | Print | Product List | Glossary On
Versions: 1 2 3 4 5 6 7 8 9 10 11 12 13 14 15 16 17 18 19 20
000
FTUS45 KPIH 272100 AAA
TAFIDA
TAF AMD
KIDA 272101Z 2721/2818 22009KT P6SM VCSH OVC022
     FM280400 21012KT 5SM -SN BKN015 OVC030
     FM281100 21015KT 1SM -SN OVC004=

USA.gov is the U.S. government's official web portal to all federal, state and local government web resources and services.